sensor_id;sensor_type;location;lat;lon;timestamp;temperature;humidity
22071;DHT22;11200;51.488;6.668;2023-04-06T03:47:36;2.50;99.90
22071;DHT22;11200;51.488;6.668;2023-04-06T03:50:02;2.80;99.90
22071;DHT22;11200;51.488;6.668;2023-04-06T03:52:28;2.50;99.90
22071;DHT22;11200;51.488;6.668;2023-04-06T03:54:54;2.90;99.90
22071;DHT22;11200;51.488;6.668;2023-04-06T03:57:19;3.00;99.90
22071;DHT22;11200;51.488;6.668;2023-04-06T03:59:45;2.60;99.90
22071;DHT22;11200;51.488;6.668;2023-04-06T04:02:11;2.60;99.90
22071;DHT22;11200;51.488;6.668;2023-04-06T04:04:37;2.60;99.90
22071;DHT22;11200;51.488;6.668;2023-04-06T04:07:03;2.90;99.90
22071;DHT22;11200;51.488;6.668;2023-04-06T04:09:28;2.80;99.90
22071;DHT22;11200;51.488;6.668;2023-04-06T04:11:54;3.00;99.90
22071;DHT22;11200;51.488;6.668;2023-04-06T04:14:20;2.70;99.90
22071;DHT22;11200;51.488;6.668;2023-04-06T04:16:46;2.30;99.90
22071;DHT22;11200;51.488;6.668;2023-04-06T04:19:12;2.40;99.90
22071;DHT22;11200;51.488;6.668;2023-04-06T04:21:45;2.50;99.90
22071;DHT22;11200;51.488;6.668;2023-04-06T04:24:11;2.50;99.90
22071;DHT22;11200;51.488;6.668;2023-04-06T04:26:37;2.40;99.90
22071;DHT22;11200;51.488;6.668;2023-04-06T04:29:03;3.00;99.90
22071;DHT22;11200;51.488;6.668;2023-04-06T04:31:29;2.80;99.90
22071;DHT22;11200;51.488;6.668;2023-04-06T04:33:55;2.40;99.90
22071;DHT22;11200;51.488;6.668;2023-04-06T04:36:20;2.40;99.90
22071;DHT22;11200;51.488;6.668;2023-04-06T04:38:46;2.30;99.90
22071;DHT22;11200;51.488;6.668;2023-04-06T04:41:11;2.30;99.90
22071;DHT22;11200;51.488;6.668;2023-04-06T04:43:37;2.50;99.90
22071;DHT22;11200;51.488;6.668;2023-04-06T04:46:04;2.60;99.90
22071;DHT22;11200;51.488;6.668;2023-04-06T04:48:30;3.10;99.90
22071;DHT22;11200;51.488;6.668;2023-04-06T04:50:55;2.50;99.90
22071;DHT22;11200;51.488;6.668;2023-04-06T04:53:21;2.10;99.90
22071;DHT22;11200;51.488;6.668;2023-04-06T04:55:46;2.10;99.90
22071;DHT22;11200;51.488;6.668;2023-04-06T04:58:12;2.20;99.90
22071;DHT22;11200;51.488;6.668;2023-04-06T05:00:45;2.50;99.90
22071;DHT22;11200;51.488;6.668;2023-04-06T05:03:17;2.10;99.90
22071;DHT22;11200;51.488;6.668;2023-04-06T05:05:43;2.30;99.90
22071;DHT22;11200;51.488;6.668;2023-04-06T05:08:09;2.30;99.90
22071;DHT22;11200;51.488;6.668;2023-04-06T05:10:35;3.00;99.90
22071;DHT22;11200;51.488;6.668;2023-04-06T05:13:00;2.40;99.90
22071;DHT22;11200;51.488;6.668;2023-04-06T05:15:26;2.60;99.90
22071;DHT22;11200;51.488;6.668;2023-04-06T05:17:52;2.50;99.90
22071;DHT22;11200;51.488;6.668;2023-04-06T05:20:17;2.30;99.90
22071;DHT22;11200;51.488;6.668;2023-04-06T05:22:43;2.10;99.90
22071;DHT22;11200;51.488;6.668;2023-04-06T05:25:08;2.20;99.90
22071;DHT22;11200;51.488;6.668;2023-04-06T05:27:34;2.40;99.90
22071;DHT22;11200;51.488;6.668;2023-04-06T05:30:00;2.50;99.90
22071;DHT22;11200;51.488;6.668;2023-04-06T05:32:27;2.50;99.90
22071;DHT22;11200;51.488;6.668;2023-04-06T05:34:53;2.30;99.90
22071;DHT22;11200;51.488;6.668;2023-04-06T05:37:18;2.30;99.90
22071;DHT22;11200;51.488;6.668;2023-04-06T05:39:44;2.80;99.90
22071;DHT22;11200;51.488;6.668;2023-04-06T05:42:10;2.40;99.90
22071;DHT22;11200;51.488;6.668;2023-04-06T05:44:37;2.40;99.90
22071;DHT22;11200;51.488;6.668;2023-04-06T05:47:03;2.40;99.90
22071;DHT22;11200;51.488;6.668;2023-04-06T05:49:28;2.30;99.90
22071;DHT22;11200;51.488;6.668;2023-04-06T05:51:54;2.50;99.90
22071;DHT22;11200;51.488;6.668;2023-04-06T05:54:20;2.50;99.90
22071;DHT22;11200;51.488;6.668;2023-04-06T05:56:46;2.40;99.90
22071;DHT22;11200;51.488;6.668;2023-04-06T05:59:11;2.70;99.90
22071;DHT22;11200;51.488;6.668;2023-04-06T06:01:37;2.90;99.90
22071;DHT22;11200;51.488;6.668;2023-04-06T06:04:02;2.50;99.90
22071;DHT22;11200;51.488;6.668;2023-04-06T06:06:29;2.50;99.90
22071;DHT22;11200;51.488;6.668;2023-04-06T06:08:57;2.70;99.90
22071;DHT22;11200;51.488;6.668;2023-04-06T06:11:26;2.60;99.90
22071;DHT22;11200;51.488;6.668;2023-04-06T06:13:52;2.70;99.90
22071;DHT22;11200;51.488;6.668;2023-04-06T06:16:18;3.00;99.90
22071;DHT22;11200;51.488;6.668;2023-04-06T06:18:44;2.80;99.90
22071;DHT22;11200;51.488;6.668;2023-04-06T06:21:10;3.70;99.90
22071;DHT22;11200;51.488;6.668;2023-04-06T06:23:38;3.30;99.90
22071;DHT22;11200;51.488;6.668;2023-04-06T06:26:03;3.10;99.90
22071;DHT22;11200;51.488;6.668;2023-04-06T06:28:30;2.90;99.90
22071;DHT22;11200;51.488;6.668;2023-04-06T06:30:55;3.40;99.90
22071;DHT22;11200;51.488;6.668;2023-04-06T06:33:21;3.00;99.90
22071;DHT22;11200;51.488;6.668;2023-04-06T06:35:47;3.10;99.90
22071;DHT22;11200;51.488;6.668;2023-04-06T06:38:13;3.70;99.90
22071;DHT22;11200;51.488;6.668;2023-04-06T06:40:39;3.70;99.90
22071;DHT22;11200;51.488;6.668;2023-04-06T06:43:05;3.60;99.90
22071;DHT22;11200;51.488;6.668;2023-04-06T06:45:31;3.30;99.90
22071;DHT22;11200;51.488;6.668;2023-04-06T06:47:56;3.40;99.90
22071;DHT22;11200;51.488;6.668;2023-04-06T06:50:22;3.70;99.90
22071;DHT22;11200;51.488;6.668;2023-04-06T06:52:48;3.70;99.90
22071;DHT22;11200;51.488;6.668;2023-04-06T06:55:13;3.40;99.90
22071;DHT22;11200;51.488;6.668;2023-04-06T06:57:39;3.50;99.90
22071;DHT22;11200;51.488;6.668;2023-04-06T07:00:08;4.10;99.90
22071;DHT22;11200;51.488;6.668;2023-04-06T07:02:34;3.60;99.90
22071;DHT22;11200;51.488;6.668;2023-04-06T07:05:01;3.90;99.90
22071;DHT22;11200;51.488;6.668;2023-04-06T07:07:27;4.30;99.90
22071;DHT22;11200;51.488;6.668;2023-04-06T07:09:52;3.90;99.90
22071;DHT22;11200;51.488;6.668;2023-04-06T07:12:18;4.00;99.90
22071;DHT22;11200;51.488;6.668;2023-04-06T07:14:44;4.50;99.90
22071;DHT22;11200;51.488;6.668;2023-04-06T07:17:09;4.00;99.90
22071;DHT22;11200;51.488;6.668;2023-04-06T07:19:35;4.10;99.90
22071;DHT22;11200;51.488;6.668;2023-04-06T07:22:01;4.20;99.90
22071;DHT22;11200;51.488;6.668;2023-04-06T07:24:27;4.40;99.90
22071;DHT22;11200;51.488;6.668;2023-04-06T07:26:53;4.40;99.90
22071;DHT22;11200;51.488;6.668;2023-04-06T07:29:18;4.60;99.90
22071;DHT22;11200;51.488;6.668;2023-04-06T07:31:44;4.60;99.90
22071;DHT22;11200;51.488;6.668;2023-04-06T07:34:10;4.90;99.90
22071;DHT22;11200;51.488;6.668;2023-04-06T07:36:36;4.60;99.90
22071;DHT22;11200;51.488;6.668;2023-04-06T07:39:01;4.90;99.90
22071;DHT22;11200;51.488;6.668;2023-04-06T07:41:27;4.90;99.90
22071;DHT22;11200;51.488;6.668;2023-04-06T07:43:52;5.00;99.90
22071;DHT22;11200;51.488;6.668;2023-04-06T07:46:18;5.10;99.90
22071;DHT22;11200;51.488;6.668;2023-04-06T07:48:44;5.00;99.90
22071;DHT22;11200;51.488;6.668;2023-04-06T07:51:09;5.20;99.90
22071;DHT22;11200;51.488;6.668;2023-04-06T07:53:39;5.40;99.90
22071;DHT22;11200;51.488;6.668;2023-04-06T07:56:05;5.50;99.90
22071;DHT22;11200;51.488;6.668;2023-04-06T07:58:31;5.30;99.90
22071;DHT22;11200;51.488;6.668;2023-04-06T08:00:56;5.60;99.90
22071;DHT22;11200;51.488;6.668;2023-04-06T08:03:23;5.60;99.90
22071;DHT22;11200;51.488;6.668;2023-04-06T08:05:54;6.10;99.90
22071;DHT22;11200;51.488;6.668;2023-04-06T08:08:20;6.00;99.90
22071;DHT22;11200;51.488;6.668;2023-04-06T08:10:47;6.00;99.90
22071;DHT22;11200;51.488;6.668;2023-04-06T08:13:13;6.10;99.90
22071;DHT22;11200;51.488;6.668;2023-04-06T08:15:39;6.10;99.90
22071;DHT22;11200;51.488;6.668;2023-04-06T08:18:05;6.40;99.90
22071;DHT22;11200;51.488;6.668;2023-04-06T08:20:31;6.50;99.90
22071;DHT22;11200;51.488;6.668;2023-04-06T08:22:56;6.40;99.90
22071;DHT22;11200;51.488;6.668;2023-04-06T08:25:22;6.60;99.90
22071;DHT22;11200;51.488;6.668;2023-04-06T08:27:48;7.00;99.90
22071;DHT22;11200;51.488;6.668;2023-04-06T08:30:13;7.10;99.90
22071;DHT22;11200;51.488;6.668;2023-04-06T08:32:41;7.00;99.90
22071;DHT22;11200;51.488;6.668;2023-04-06T08:35:07;7.30;99.90
22071;DHT22;11200;51.488;6.668;2023-04-06T08:37:33;7.40;99.90
22071;DHT22;11200;51.488;6.668;2023-04-06T08:39:58;7.60;99.90
22071;DHT22;11200;51.488;6.668;2023-04-06T08:42:26;7.90;99.90
22071;DHT22;11200;51.488;6.668;2023-04-06T08:44:51;8.10;99.90
22071;DHT22;11200;51.488;6.668;2023-04-06T08:47:18;8.30;99.90
22071;DHT22;11200;51.488;6.668;2023-04-06T08:49:45;8.50;99.90
22071;DHT22;11200;51.488;6.668;2023-04-06T08:52:11;8.80;99.90
22071;DHT22;11200;51.488;6.668;2023-04-06T08:54:38;9.00;99.90
22071;DHT22;11200;51.488;6.668;2023-04-06T08:57:05;9.30;99.90
22071;DHT22;11200;51.488;6.668;2023-04-06T08:59:31;9.50;99.90
22071;DHT22;11200;51.488;6.668;2023-04-06T09:01:57;9.80;99.90
22071;DHT22;11200;51.488;6.668;2023-04-06T09:04:26;10.00;99.90
22071;DHT22;11200;51.488;6.668;2023-04-06T09:06:51;10.20;99.90
22071;DHT22;11200;51.488;6.668;2023-04-06T09:09:17;10.50;99.90
22071;DHT22;11200;51.488;6.668;2023-04-06T09:11:47;10.70;99.90
22071;DHT22;11200;51.488;6.668;2023-04-06T09:14:14;10.90;99.90
22071;DHT22;11200;51.488;6.668;2023-04-06T09:16:44;11.10;99.90
22071;DHT22;11200;51.488;6.668;2023-04-06T09:19:11;11.30;99.90
22071;DHT22;11200;51.488;6.668;2023-04-06T09:21:38;11.40;99.90
22071;DHT22;11200;51.488;6.668;2023-04-06T09:24:06;11.50;99.90
22071;DHT22;11200;51.488;6.668;2023-04-06T09:26:32;11.60;99.90
22071;DHT22;11200;51.488;6.668;2023-04-06T09:28:59;11.70;99.90
22071;DHT22;11200;51.488;6.668;2023-04-06T09:31:28;11.80;99.90
22071;DHT22;11200;51.488;6.668;2023-04-06T09:33:55;12.00;99.90
22071;DHT22;11200;51.488;6.668;2023-04-06T09:36:35;11.90;99.90
22071;DHT22;11200;51.488;6.668;2023-04-06T09:39:03;12.00;99.90
22071;DHT22;11200;51.488;6.668;2023-04-06T09:41:33;12.00;99.90
22071;DHT22;11200;51.488;6.668;2023-04-06T09:44:09;12.00;99.90
22071;DHT22;11200;51.488;6.668;2023-04-06T09:46:39;12.10;99.90
22071;DHT22;11200;51.488;6.668;2023-04-06T09:49:06;12.20;99.90
22071;DHT22;11200;51.488;6.668;2023-04-06T09:51:49;12.20;99.90
22071;DHT22;11200;51.488;6.668;2023-04-06T09:54:22;12.50;99.90
22071;DHT22;11200;51.488;6.668;2023-04-06T09:57:07;12.30;99.90
22071;DHT22;11200;51.488;6.668;2023-04-06T09:59:47;12.60;99.90
22071;DHT22;11200;51.488;6.668;2023-04-06T10:02:29;12.60;99.90
22071;DHT22;11200;51.488;6.668;2023-04-06T10:05:02;12.60;99.90
22071;DHT22;11200;51.488;6.668;2023-04-06T10:07:33;12.60;99.90
22071;DHT22;11200;51.488;6.668;2023-04-06T10:09:59;12.70;99.90
22071;DHT22;11200;51.488;6.668;2023-04-06T10:12:27;12.80;99.90
22071;DHT22;11200;51.488;6.668;2023-04-06T10:14:53;13.00;99.90
22071;DHT22;11200;51.488;6.668;2023-04-06T10:17:19;13.10;99.90
22071;DHT22;11200;51.488;6.668;2023-04-06T10:20:10;13.30;99.90
22071;DHT22;11200;51.488;6.668;2023-04-06T10:25:32;13.70;99.90
22071;DHT22;11200;51.488;6.668;2023-04-06T10:28:05;13.90;99.90
22071;DHT22;11200;51.488;6.668;2023-04-06T10:30:32;14.00;99.90
22071;DHT22;11200;51.488;6.668;2023-04-06T10:32:58;14.20;99.90
22071;DHT22;11200;51.488;6.668;2023-04-06T10:35:23;14.20;99.90
22071;DHT22;11200;51.488;6.668;2023-04-06T10:38:00;14.30;99.90
22071;DHT22;11200;51.488;6.668;2023-04-06T10:40:25;14.30;99.90
22071;DHT22;11200;51.488;6.668;2023-04-06T10:42:53;14.40;99.90
22071;DHT22;11200;51.488;6.668;2023-04-06T10:45:24;14.40;99.90
22071;DHT22;11200;51.488;6.668;2023-04-06T10:47:54;14.40;99.90
22071;DHT22;11200;51.488;6.668;2023-04-06T10:50:23;14.30;99.90
22071;DHT22;11200;51.488;6.668;2023-04-06T10:53:01;14.40;99.90
22071;DHT22;11200;51.488;6.668;2023-04-06T10:55:30;14.40;99.90
22071;DHT22;11200;51.488;6.668;2023-04-06T10:57:56;14.40;99.90
22071;DHT22;11200;51.488;6.668;2023-04-06T11:00:22;14.40;99.90
22071;DHT22;11200;51.488;6.668;2023-04-06T11:02:48;14.40;99.90
22071;DHT22;11200;51.488;6.668;2023-04-06T11:05:14;14.40;99.90
22071;DHT22;11200;51.488;6.668;2023-04-06T11:07:40;14.40;99.90
22071;DHT22;11200;51.488;6.668;2023-04-06T11:10:07;14.50;99.90
22071;DHT22;11200;51.488;6.668;2023-04-06T11:12:33;14.50;99.90
22071;DHT22;11200;51.488;6.668;2023-04-06T11:15:03;14.50;99.90
22071;DHT22;11200;51.488;6.668;2023-04-06T11:17:34;14.40;99.90
22071;DHT22;11200;51.488;6.668;2023-04-06T11:20:01;14.50;99.90
22071;DHT22;11200;51.488;6.668;2023-04-06T11:22:28;14.50;99.90
22071;DHT22;11200;51.488;6.668;2023-04-06T11:25:05;14.50;99.90
22071;DHT22;11200;51.488;6.668;2023-04-06T11:27:31;14.40;99.90
22071;DHT22;11200;51.488;6.668;2023-04-06T11:29:59;14.50;99.90
22071;DHT22;11200;51.488;6.668;2023-04-06T11:32:25;14.50;99.90
22071;DHT22;11200;51.488;6.668;2023-04-06T11:34:50;14.50;99.90
22071;DHT22;11200;51.488;6.668;2023-04-06T11:37:16;14.50;99.90
22071;DHT22;11200;51.488;6.668;2023-04-06T11:39:50;14.40;99.90
22071;DHT22;11200;51.488;6.668;2023-04-06T11:42:27;14.40;99.90
22071;DHT22;11200;51.488;6.668;2023-04-06T11:44:57;14.40;99.90
22071;DHT22;11200;51.488;6.668;2023-04-06T11:47:32;14.40;99.90
22071;DHT22;11200;51.488;6.668;2023-04-06T11:50:08;14.40;99.90
22071;DHT22;11200;51.488;6.668;2023-04-06T11:52:34;14.40;99.90
22071;DHT22;11200;51.488;6.668;2023-04-06T11:55:13;14.40;99.90
22071;DHT22;11200;51.488;6.668;2023-04-06T11:57:40;14.40;99.90
22071;DHT22;11200;51.488;6.668;2023-04-06T12:00:08;14.30;99.90
22071;DHT22;11200;51.488;6.668;2023-04-06T12:02:37;14.30;99.90
22071;DHT22;11200;51.488;6.668;2023-04-06T12:05:05;14.40;99.90
22071;DHT22;11200;51.488;6.668;2023-04-06T12:07:31;14.40;99.90
22071;DHT22;11200;51.488;6.668;2023-04-06T12:09:58;14.40;99.90
22071;DHT22;11200;51.488;6.668;2023-04-06T12:12:24;14.40;99.90
22071;DHT22;11200;51.488;6.668;2023-04-06T12:14:50;14.40;99.90
22071;DHT22;11200;51.488;6.668;2023-04-06T12:17:15;14.40;99.90
22071;DHT22;11200;51.488;6.668;2023-04-06T12:19:41;14.50;99.90
22071;DHT22;11200;51.488;6.668;2023-04-06T12:22:06;14.50;99.90
22071;DHT22;11200;51.488;6.668;2023-04-06T12:24:32;14.50;99.90
22071;DHT22;11200;51.488;6.668;2023-04-06T12:26:58;14.50;99.90
22071;DHT22;11200;51.488;6.668;2023-04-06T12:29:27;14.50;99.90
22071;DHT22;11200;51.488;6.668;2023-04-06T12:31:52;14.60;99.90
22071;DHT22;11200;51.488;6.668;2023-04-06T12:34:18;14.60;99.90
22071;DHT22;11200;51.488;6.668;2023-04-06T12:36:44;14.60;99.90
22071;DHT22;11200;51.488;6.668;2023-04-06T12:39:10;14.60;99.90
22071;DHT22;11200;51.488;6.668;2023-04-06T12:41:36;14.60;99.90
22071;DHT22;11200;51.488;6.668;2023-04-06T12:44:02;14.60;99.90
22071;DHT22;11200;51.488;6.668;2023-04-06T12:46:28;14.60;99.90
22071;DHT22;11200;51.488;6.668;2023-04-06T12:48:57;14.60;99.90
22071;DHT22;11200;51.488;6.668;2023-04-06T12:51:26;14.60;99.90
22071;DHT22;11200;51.488;6.668;2023-04-06T12:53:53;14.60;99.90
22071;DHT22;11200;51.488;6.668;2023-04-06T12:56:19;14.60;99.90
22071;DHT22;11200;51.488;6.668;2023-04-06T12:58:46;14.60;99.90
22071;DHT22;11200;51.488;6.668;2023-04-06T13:01:12;14.60;99.90
22071;DHT22;11200;51.488;6.668;2023-04-06T13:03:39;14.50;99.90
22071;DHT22;11200;51.488;6.668;2023-04-06T13:06:05;14.50;99.90
22071;DHT22;11200;51.488;6.668;2023-04-06T13:08:31;14.50;99.90
22071;DHT22;11200;51.488;6.668;2023-04-06T13:10:56;14.40;99.90
22071;DHT22;11200;51.488;6.668;2023-04-06T13:13:24;14.40;99.90
22071;DHT22;11200;51.488;6.668;2023-04-06T13:15:50;14.40;99.90
22071;DHT22;11200;51.488;6.668;2023-04-06T13:18:16;14.40;99.90
22071;DHT22;11200;51.488;6.668;2023-04-06T13:20:42;14.40;99.90
22071;DHT22;11200;51.488;6.668;2023-04-06T13:23:08;14.40;99.90
22071;DHT22;11200;51.488;6.668;2023-04-06T13:25:34;14.30;99.90
22071;DHT22;11200;51.488;6.668;2023-04-06T13:27:59;14.30;99.90
22071;DHT22;11200;51.488;6.668;2023-04-06T13:30:25;14.30;99.90
22071;DHT22;11200;51.488;6.668;2023-04-06T13:32:51;14.20;99.90
22071;DHT22;11200;51.488;6.668;2023-04-06T13:35:17;14.20;99.90
22071;DHT22;11200;51.488;6.668;2023-04-06T13:37:43;14.20;99.90
22071;DHT22;11200;51.488;6.668;2023-04-06T13:40:09;14.20;99.90
22071;DHT22;11200;51.488;6.668;2023-04-06T13:42:35;14.10;99.90
22071;DHT22;11200;51.488;6.668;2023-04-06T13:45:02;14.10;99.90
22071;DHT22;11200;51.488;6.668;2023-04-06T13:47:27;14.10;99.90
22071;DHT22;11200;51.488;6.668;2023-04-06T13:49:53;14.00;99.90
22071;DHT22;11200;51.488;6.668;2023-04-06T13:52:20;14.00;99.90
22071;DHT22;11200;51.488;6.668;2023-04-06T13:54:46;14.00;99.90
22071;DHT22;11200;51.488;6.668;2023-04-06T13:57:12;13.90;99.90
22071;DHT22;11200;51.488;6.668;2023-04-06T13:59:39;13.80;99.90
22071;DHT22;11200;51.488;6.668;2023-04-06T14:02:06;13.80;99.90
22071;DHT22;11200;51.488;6.668;2023-04-06T14:04:32;13.70;99.90
22071;DHT22;11200;51.488;6.668;2023-04-06T14:06:59;13.70;99.90
22071;DHT22;11200;51.488;6.668;2023-04-06T14:09:25;13.70;99.90
22071;DHT22;11200;51.488;6.668;2023-04-06T14:11:51;13.60;99.90
22071;DHT22;11200;51.488;6.668;2023-04-06T14:14:16;13.60;99.90
22071;DHT22;11200;51.488;6.668;2023-04-06T14:16:42;13.50;99.90
22071;DHT22;11200;51.488;6.668;2023-04-06T14:19:12;13.50;99.90
22071;DHT22;11200;51.488;6.668;2023-04-06T14:21:41;13.50;99.90
22071;DHT22;11200;51.488;6.668;2023-04-06T14:24:09;13.40;99.90
22071;DHT22;11200;51.488;6.668;2023-04-06T14:26:35;13.40;99.90
22071;DHT22;11200;51.488;6.668;2023-04-06T14:29:02;13.40;99.90
22071;DHT22;11200;51.488;6.668;2023-04-06T14:31:27;13.30;99.90
22071;DHT22;11200;51.488;6.668;2023-04-06T14:33:53;13.30;99.90
22071;DHT22;11200;51.488;6.668;2023-04-06T14:36:19;13.30;99.90
22071;DHT22;11200;51.488;6.668;2023-04-06T14:38:45;13.30;99.90
22071;DHT22;11200;51.488;6.668;2023-04-06T14:41:17;13.30;99.90
22071;DHT22;11200;51.488;6.668;2023-04-06T14:43:44;13.20;99.90
22071;DHT22;11200;51.488;6.668;2023-04-06T14:46:09;13.20;99.90
22071;DHT22;11200;51.488;6.668;2023-04-06T14:48:36;13.20;99.90
22071;DHT22;11200;51.488;6.668;2023-04-06T14:51:02;13.20;99.90
22071;DHT22;11200;51.488;6.668;2023-04-06T14:53:28;13.10;99.90
22071;DHT22;11200;51.488;6.668;2023-04-06T14:55:54;13.00;99.90
22071;DHT22;11200;51.488;6.668;2023-04-06T14:58:20;13.00;99.90
22071;DHT22;11200;51.488;6.668;2023-04-06T15:00:46;13.00;99.90
22071;DHT22;11200;51.488;6.668;2023-04-06T15:03:12;12.90;99.90
22071;DHT22;11200;51.488;6.668;2023-04-06T15:05:38;12.90;99.90
22071;DHT22;11200;51.488;6.668;2023-04-06T15:08:04;12.80;99.90
22071;DHT22;11200;51.488;6.668;2023-04-06T15:10:33;12.70;99.90
22071;DHT22;11200;51.488;6.668;2023-04-06T15:12:59;12.70;99.90
22071;DHT22;11200;51.488;6.668;2023-04-06T15:15:24;12.60;99.90
22071;DHT22;11200;51.488;6.668;2023-04-06T15:17:50;12.50;99.90
22071;DHT22;11200;51.488;6.668;2023-04-06T15:20:16;12.50;99.90
22071;DHT22;11200;51.488;6.668;2023-04-06T15:22:41;12.40;99.90
22071;DHT22;11200;51.488;6.668;2023-04-06T15:25:07;12.40;99.90
22071;DHT22;11200;51.488;6.668;2023-04-06T15:27:33;12.30;99.90
22071;DHT22;11200;51.488;6.668;2023-04-06T15:29:59;12.30;99.90
22071;DHT22;11200;51.488;6.668;2023-04-06T15:32:24;12.20;99.90
22071;DHT22;11200;51.488;6.668;2023-04-06T15:34:50;12.10;99.90
22071;DHT22;11200;51.488;6.668;2023-04-06T15:37:16;12.10;99.90
22071;DHT22;11200;51.488;6.668;2023-04-06T15:39:42;12.00;99.90
22071;DHT22;11200;51.488;6.668;2023-04-06T15:42:08;12.00;99.90
22071;DHT22;11200;51.488;6.668;2023-04-06T15:44:34;11.90;99.90
22071;DHT22;11200;51.488;6.668;2023-04-06T15:47:00;11.80;99.90
22071;DHT22;11200;51.488;6.668;2023-04-06T15:49:25;11.80;99.90
22071;DHT22;11200;51.488;6.668;2023-04-06T15:51:51;11.70;99.90
22071;DHT22;11200;51.488;6.668;2023-04-06T15:54:17;11.70;99.90
22071;DHT22;11200;51.488;6.668;2023-04-06T15:56:44;11.60;99.90
22071;DHT22;11200;51.488;6.668;2023-04-06T15:59:10;11.60;99.90
22071;DHT22;11200;51.488;6.668;2023-04-06T16:01:36;11.50;99.90
22071;DHT22;11200;51.488;6.668;2023-04-06T16:04:05;11.50;99.90
22071;DHT22;11200;51.488;6.668;2023-04-06T16:06:31;11.40;99.90
22071;DHT22;11200;51.488;6.668;2023-04-06T16:08:57;11.30;99.90
22071;DHT22;11200;51.488;6.668;2023-04-06T16:11:22;11.30;99.90
22071;DHT22;11200;51.488;6.668;2023-04-06T16:13:48;11.30;99.90
22071;DHT22;11200;51.488;6.668;2023-04-06T16:16:13;11.20;99.90
22071;DHT22;11200;51.488;6.668;2023-04-06T16:18:40;11.20;99.90
22071;DHT22;11200;51.488;6.668;2023-04-06T16:21:05;11.10;99.90
22071;DHT22;11200;51.488;6.668;2023-04-06T16:23:31;11.10;99.90
22071;DHT22;11200;51.488;6.668;2023-04-06T16:25:56;11.00;99.90
22071;DHT22;11200;51.488;6.668;2023-04-06T16:28:22;11.00;99.90
22071;DHT22;11200;51.488;6.668;2023-04-06T16:30:50;10.90;99.90
22071;DHT22;11200;51.488;6.668;2023-04-06T16:33:16;10.90;99.90
22071;DHT22;11200;51.488;6.668;2023-04-06T16:35:47;10.80;99.90
22071;DHT22;11200;51.488;6.668;2023-04-06T16:38:13;10.80;99.90
22071;DHT22;11200;51.488;6.668;2023-04-06T16:40:39;10.80;99.90
22071;DHT22;11200;51.488;6.668;2023-04-06T16:43:05;10.90;99.90
22071;DHT22;11200;51.488;6.668;2023-04-06T16:45:31;10.70;99.90
22071;DHT22;11200;51.488;6.668;2023-04-06T16:47:57;10.70;99.90
22071;DHT22;11200;51.488;6.668;2023-04-06T16:50:22;10.60;99.90
22071;DHT22;11200;51.488;6.668;2023-04-06T16:52:48;10.60;99.90
22071;DHT22;11200;51.488;6.668;2023-04-06T16:55:14;10.50;99.90
22071;DHT22;11200;51.488;6.668;2023-04-06T16:57:39;10.50;99.90
22071;DHT22;11200;51.488;6.668;2023-04-06T17:00:06;10.50;99.90
22071;DHT22;11200;51.488;6.668;2023-04-06T17:02:32;10.40;99.90
22071;DHT22;11200;51.488;6.668;2023-04-06T17:05:00;10.40;99.90
22071;DHT22;11200;51.488;6.668;2023-04-06T17:07:26;10.30;99.90
22071;DHT22;11200;51.488;6.668;2023-04-06T17:09:58;10.30;99.90
22071;DHT22;11200;51.488;6.668;2023-04-06T17:12:23;10.30;99.90
22071;DHT22;11200;51.488;6.668;2023-04-06T17:14:50;10.30;99.90
22071;DHT22;11200;51.488;6.668;2023-04-06T17:17:15;10.30;99.90
22071;DHT22;11200;51.488;6.668;2023-04-06T17:19:41;10.20;99.90
22071;DHT22;11200;51.488;6.668;2023-04-06T17:22:07;10.20;99.90
22071;DHT22;11200;51.488;6.668;2023-04-06T17:24:32;10.10;99.90
22071;DHT22;11200;51.488;6.668;2023-04-06T17:26:58;10.10;99.90
22071;DHT22;11200;51.488;6.668;2023-04-06T17:29:24;10.10;99.90
22071;DHT22;11200;51.488;6.668;2023-04-06T17:31:50;10.00;99.90
22071;DHT22;11200;51.488;6.668;2023-04-06T17:34:15;10.00;99.90
22071;DHT22;11200;51.488;6.668;2023-04-06T17:36:41;10.00;99.90
22071;DHT22;11200;51.488;6.668;2023-04-06T17:39:06;10.00;99.90
22071;DHT22;11200;51.488;6.668;2023-04-06T17:41:33;10.00;99.90
22071;DHT22;11200;51.488;6.668;2023-04-06T17:43:59;9.90;99.90
22071;DHT22;11200;51.488;6.668;2023-04-06T17:46:24;10.00;99.90
22071;DHT22;11200;51.488;6.668;2023-04-06T17:48:50;9.90;99.90
22071;DHT22;11200;51.488;6.668;2023-04-06T17:51:17;9.90;99.90
22071;DHT22;11200;51.488;6.668;2023-04-06T17:53:44;9.80;99.90
22071;DHT22;11200;51.488;6.668;2023-04-06T17:56:10;9.80;99.90
22071;DHT22;11200;51.488;6.668;2023-04-06T17:58:36;9.80;99.90
22071;DHT22;11200;51.488;6.668;2023-04-06T18:01:08;9.80;99.90
22071;DHT22;11200;51.488;6.668;2023-04-06T18:03:37;9.80;99.90
22071;DHT22;11200;51.488;6.668;2023-04-06T18:06:13;9.60;99.90
22071;DHT22;11200;51.488;6.668;2023-04-06T18:08:39;9.70;99.90
22071;DHT22;11200;51.488;6.668;2023-04-06T18:11:05;9.70;99.90
22071;DHT22;11200;51.488;6.668;2023-04-06T18:13:31;9.40;99.90
22071;DHT22;11200;51.488;6.668;2023-04-06T18:16:00;9.60;99.90
22071;DHT22;11200;51.488;6.668;2023-04-06T18:18:26;9.60;99.90
22071;DHT22;11200;51.488;6.668;2023-04-06T18:20:54;9.60;99.90
22071;DHT22;11200;51.488;6.668;2023-04-06T18:23:19;9.60;99.90
22071;DHT22;11200;51.488;6.668;2023-04-06T18:25:45;9.60;99.90
22071;DHT22;11200;51.488;6.668;2023-04-06T18:28:11;9.60;99.90
22071;DHT22;11200;51.488;6.668;2023-04-06T18:30:36;9.50;99.90
22071;DHT22;11200;51.488;6.668;2023-04-06T18:33:02;9.50;99.90
22071;DHT22;11200;51.488;6.668;2023-04-06T18:35:28;9.50;99.90
22071;DHT22;11200;51.488;6.668;2023-04-06T18:37:54;9.50;99.90
22071;DHT22;11200;51.488;6.668;2023-04-06T18:40:30;9.50;99.90
22071;DHT22;11200;51.488;6.668;2023-04-06T18:42:56;9.60;99.90
22071;DHT22;11200;51.488;6.668;2023-04-06T18:45:21;9.40;99.90
22071;DHT22;11200;51.488;6.668;2023-04-06T18:47:48;9.50;99.90
22071;DHT22;11200;51.488;6.668;2023-04-06T18:50:13;9.40;99.90
22071;DHT22;11200;51.488;6.668;2023-04-06T18:52:39;9.40;99.90
22071;DHT22;11200;51.488;6.668;2023-04-06T18:55:06;9.40;99.90
22071;DHT22;11200;51.488;6.668;2023-04-06T18:57:33;9.40;99.90
22071;DHT22;11200;51.488;6.668;2023-04-06T18:59:58;9.40;99.90
22071;DHT22;11200;51.488;6.668;2023-04-06T19:02:24;9.30;99.90
22071;DHT22;11200;51.488;6.668;2023-04-06T19:04:50;9.30;99.90
22071;DHT22;11200;51.488;6.668;2023-04-06T19:07:16;9.30;99.90
22071;DHT22;11200;51.488;6.668;2023-04-06T19:09:41;9.30;99.90
22071;DHT22;11200;51.488;6.668;2023-04-06T19:12:07;9.30;99.90
22071;DHT22;11200;51.488;6.668;2023-04-06T19:14:32;9.30;99.90
22071;DHT22;11200;51.488;6.668;2023-04-06T19:16:59;9.30;99.90
22071;DHT22;11200;51.488;6.668;2023-04-06T19:19:24;9.30;99.90
22071;DHT22;11200;51.488;6.668;2023-04-06T19:21:50;9.20;99.90
22071;DHT22;11200;51.488;6.668;2023-04-06T19:24:15;9.20;99.90